Flight Track Log - Related Links

Times and Time Zones

All times are in EDT time to prevent confusion due to time zone crossing. See the SWA2624 flight status page for this flight to view local times or setup timezone preferences in your user account.

Time Position Orientation Groundspeed Altitude Reporting Facility
EDT Latitude Longitude Course Direction KTS MPH feet Rate Location/Type
Sun 11:33:22 PM 34.9839 -106.5922 186° South 249 287 9,200  Level Albuquerque Center
Sun 11:34:36 PM 35.0006 -106.6953 281° West 285 328 12,700 3,733 Climbing Albuquerque Center
Sun 11:35:37 PM 35.0494 -106.8211 295° West 352 405 17,600 4,279 Climbing Albuquerque Center
Sun 11:36:38 PM 35.0894 -106.9292 294° West 368 423 21,400 3,344 Climbing Albuquerque Center
Sun 11:37:39 PM 35.1317 -107.0428 294° West 382 440 24,400 3,073 Climbing Albuquerque Center
Sun 11:38:41 PM 35.1839 -107.1800 295° West 398 458 27,700 3,024 Climbing Albuquerque Center
Sun 11:39:42 PM 35.2172 -107.3061 288° West 407 468 30,600 2,754 Climbing Albuquerque Center
Sun 11:40:43 PM 35.2286 -107.4406 276° West 399 459 33,300 2,557 Climbing Albuquerque Center
Sun 11:41:44 PM 35.2408 -107.5889 276° West 402 463 35,800 2,439 Climbing Albuquerque Center
Sun 11:42:46 PM 35.2522 -107.7172 276° West 400 460 38,300 2,049 Climbing Albuquerque Center
Sun 11:43:47 PM 35.2647 -107.8611 276° West 386 444 40,000 836 Climbing Albuquerque Center
Sun 11:44:48 PM 35.2767 -107.9847 277° West 383 441 40,000  Level Albuquerque Center
Sun 11:45:49 PM 35.2869 -108.1081 276° West 381 438 40,000  Level Albuquerque Center
Sun 11:46:51 PM 35.2994 -108.2531 276° West 382 440 40,000  Level Albuquerque Center
Sun 11:47:52 PM 35.3094 -108.3789 276° West 386 444 40,000  Level Albuquerque Center
Sun 11:48:53 PM 35.3217 -108.5256 276° West 386 444 40,000  Level Albuquerque Center
Sun 11:49:54 PM 35.3325 -108.6506 276° West 385 443 40,000  Level Albuquerque Center
Sun 11:50:55 PM 35.3425 -108.7772 276° West 387 445 40,000  Level Albuquerque Center
Sun 11:51:56 PM 35.3544 -108.9247 276° West 388 447 40,000  Level Albuquerque Center
Sun 11:52:57 PM 35.3639 -109.0519 275° West 390 449 40,000  Level Albuquerque Center
Sun 11:53:59 PM 35.3739 -109.1778 276° West 388 447 40,000  Level Albuquerque Center
Sun 11:55:00 PM 35.3850 -109.3256 275° West 389 448 40,000  Level Albuquerque Center
Sun 11:56:01 PM 35.3942 -109.4542 275° West 392 451 40,000  Level Albuquerque Center
Sun 11:57:02 PM 35.4047 -109.5831 276° West 396 456 40,000  Level Albuquerque Center
Sun 11:58:03 PM 35.4150 -109.7325 275° West 394 453 40,000  Level Albuquerque Center
Sun 11:59:04 PM 35.4228 -109.8603 274° West 393 452 40,000  Level Albuquerque Center
Mon 12:00:05 AM 35.4308 -109.9881 274° West 396 456 40,000  Level Albuquerque Center
Mon 12:01:06 AM 35.4414 -110.1367 275° West 392 451 40,000  Level Albuquerque Center
Mon 12:02:07 AM 35.4492 -110.2642 274° West 393 452 40,000  Level Albuquerque Center
Mon 12:03:08 AM 35.4575 -110.4139 274° West 394 453 40,000  Level Albuquerque Center
Mon 12:04:09 AM 35.4664 -110.5436 275° West 398 458 40,000  Level Albuquerque Center
Mon 12:05:10 AM 35.4761 -110.6728 275° West 397 457 40,000  Level Albuquerque Center
Mon 12:06:11 AM 35.4850 -110.8242 274° West 399 459 40,000  Level Albuquerque Center
Mon 12:07:12 AM 35.4917 -110.9536 274° West 398 458 40,000  Level Albuquerque Center
Mon 12:08:14 AM 35.5000 -111.0819 275° West 397 457 40,000 -492 Level Albuquerque Center
Mon 12:09:14 AM 35.5086 -111.2319 274° West 395 455 39,000 -942 Descending Albuquerque Center
Mon 12:10:15 AM 35.5175 -111.3633 275° West 400 460 38,100 -1,180 Descending Albuquerque Center
Mon 12:11:16 AM 35.5247 -111.4994 274° West 405 466 36,600 -2,213 Descending Albuquerque Center
Mon 12:12:17 AM 35.5325 -111.6356 274° West 404 465 33,600 -3,000 Descending Albuquerque Center
Mon 12:13:18 AM 35.5400 -111.7764 274° West 412 474 30,500 -1,770 Descending Albuquerque Center
Mon 12:14:19 AM 35.5494 -111.9258 274° West 433 498 30,000 -246 Descending Albuquerque Center
Mon 12:15:20 AM 35.5569 -112.0708 274° West 432 497 30,000  Level Albuquerque Center
Mon 12:16:21 AM 35.5631 -112.2147 273° West 427 491 30,000  Level Albuquerque Center
Mon 12:17:22 AM 35.5736 -112.3925 274° West 434 499 30,000  Level Albuquerque Center
Mon 12:18:22 AM 35.5814 -112.5408 274° West 438 504 30,000  Level Albuquerque Center
Mon 12:19:23 AM 35.5883 -112.6881 273° West 438 504 30,000  Level Albuquerque Center
Mon 12:20:24 AM 35.5944 -112.8350 273° West 438 504 30,000  Level Albuquerque Center
Mon 12:20:39 AM 35.5956 -112.8753 272° West 445 512 30,000  Level Los Angeles Center
Mon 12:21:40 AM 35.6028 -113.0164 274° West 432 497 30,000 -488 Level Los Angeles Center
Mon 12:22:42 AM 35.6075 -113.1478 273° West 390 449 29,000 -1,073 Descending Los Angeles Center
Mon 12:23:43 AM 35.6142 -113.2928 273° West 382 440 27,800 -1,082 Descending Los Angeles Center
Mon 12:24:44 AM 35.6192 -113.4192 273° West 376 433 26,800 -927 Descending Los Angeles Center
Mon 12:25:46 AM 35.6250 -113.5442 273° West 371 427 25,900 -1,220 Descending Los Angeles Center
Mon 12:26:47 AM 35.6419 -113.6653 280° West 361 415 24,300 -2,000 Descending Los Angeles Center
Mon 12:27:49 AM 35.6583 -113.7806 280° West 347 399 21,800 -2,341 Descending Los Angeles Center
Mon 12:28:50 AM 35.6747 -113.8917 280° West 334 384 19,500 -1,574 Descending Los Angeles Center
Mon 12:29:51 AM 35.6931 -114.0264 280° West 332 382 18,600 -1,500 Descending Los Angeles Center
Mon 12:30:38 AM 35.7036 -114.1158 278° West 330 380 16,800 -2,226 Descending Los Angeles Center
Mon 12:30:53 AM 35.7078 -114.1353 285° West 325 374 16,300 -2,082 Descending Los Angeles Center
Mon 12:31:27 AM 35.7200 -114.1978 284° West 323 372 15,100 -1,869 Descending Los Angeles Center
Mon 12:31:54 AM 35.7214 -114.2347 273° West 314 361 14,400 -2,071 Descending Los Angeles Center
Mon 12:32:51 AM 35.7400 -114.3531 281° West 316 364 12,200 -1,358 Descending Los Angeles Center
Mon 12:33:40 AM 35.7836 -114.4019 318° Northwest 289 333 12,000 -182 Descending Los Angeles Center
Mon 12:33:57 AM 35.8044 -114.4108 341° North 288 331 12,000 -393 Level Los Angeles Center
Mon 12:34:41 AM 35.8531 -114.4422 332° Northwest 286 329 11,600 -689 Descending Los Angeles Center
Mon 12:34:58 AM 35.8683 -114.4653 309° West 289 333 11,300 -1,000 Descending Los Angeles Center
Mon 12:35:23 AM 35.8936 -114.4975 314° West 284 327 10,900 -984 Descending Los Angeles Center
Mon 12:35:59 AM 35.9222 -114.5339 314° West 280 322 10,300 -984 Descending Los Angeles Center
Mon 12:36:24 AM 35.9481 -114.5669 314° West 283 326 9,900 -968 Descending Los Angeles Center
Mon 12:37:01 AM 35.9761 -114.6039 313° West 282 325 9,300 -1,091 Descending Los Angeles Center
Mon 12:37:19 AM 35.9989 -114.6297 317° Northwest 282 325 8,900 -984 Descending Los Angeles Center
Mon 12:38:02 AM 36.0333 -114.6744 314° West 287 330 8,300 -692 Descending Los Angeles Center
Mon 12:38:37 AM 36.0694 -114.7233 312° West 280 322 8,000 -492 Descending Los Angeles Center
Mon 12:39:03 AM 36.0753 -114.7458 288° West 274 315 7,800 -977 Descending Los Angeles Center
Mon 12:39:20 AM 36.0733 -114.7806 266° West 248 285 7,300 -1,065 Descending Los Angeles Center
Mon 12:40:05 AM 36.0736 -114.8286 270° West 252 290 6,700 -787 Descending Los Angeles Center
Mon 12:40:21 AM 36.0736 -114.8603 270° West 241 277 6,500 -590 Descending Los Angeles Center
Mon 12:41:06 AM 36.0744 -114.9081 271° West 241 277 6,100 -985 Descending Los Angeles Center
Mon 12:41:28 AM 36.0739 -114.9400 269° West 196 226 5,400 -1,377 Descending Los Angeles Center
Mon 12:42:07 AM 36.0733 -114.9753 269° West 219 252 4,700 -1,556 Descending Los Angeles Center
Mon 12:42:22 AM 36.0722 -115.0019 267° West 187 215 4,000 -1,161 Descending Los Angeles Center
Mon 12:43:09 AM 36.0739 -115.0328 274° West 193 222 3,500 -722 Descending Los Angeles Center
Mon 12:44:10 AM 36.0739 -115.0842 270° West 153 176 2,700 -738 Descending Los Angeles Center
Mon 12:45:11 AM 36.0739 -115.1236 270° West 130 150 2,000 -689 Descending Los Angeles Center
Mon 12:47:00 AM 36.0667 -115.1500 270° West  Level FlightAware Approximate

Login

Don't have an account? Register now (free) for customized features, flight alerts, and more!